Time;durP1;ratioP1;P1;durP2;ratioP2;P2;SDS_P1;SDS_P2;PMS_P1;PMS_P2;Temp;Humidity;BMP_temperature;BMP_pressure;BME280_temperature;BME280_humidity;BME280_pressure;Samples;Min_cycle;Max_cycle;Signal;HPM_P1;HPM_P2
2022/03/07 00:00:39;;;;;;;19.73;12.50;;;1.80;70.10;;;;;;5050207;28;20300;-70
2022/03/07 00:03:06;;;;;;;19.23;13.17;;;1.80;70.20;;;;;;5048700;28;20300;-70
2022/03/07 00:05:34;;;;;;;17.90;11.70;;;1.90;70.40;;;;;;5052099;28;20313;-69
2022/03/07 00:08:01;;;;;;;20.63;11.77;;;1.80;70.30;;;;;;5059878;28;20297;-68
2022/03/07 00:10:28;;;;;;;20.77;11.90;;;1.90;70.40;;;;;;5053025;28;20210;-69
2022/03/07 00:12:55;;;;;;;16.10;12.00;;;1.90;70.40;;;;;;5043163;28;20297;-69
2022/03/07 00:15:21;;;;;;;18.17;10.87;;;1.90;70.40;;;;;;5050780;28;20582;-69
2022/03/07 00:17:48;;;;;;;18.87;11.67;;;1.90;70.30;;;;;;5048886;28;20217;-70
2022/03/07 00:20:16;;;;;;;16.83;11.03;;;1.90;70.40;;;;;;5050941;28;20240;-69
2022/03/07 00:22:44;;;;;;;19.53;12.03;;;2.00;70.50;;;;;;5034948;28;20221;-69
2022/03/07 00:25:11;;;;;;;17.07;10.17;;;2.00;70.40;;;;;;5051547;28;20224;-69
2022/03/07 00:27:38;;;;;;;16.60;10.83;;;2.00;70.50;;;;;;5046754;28;20206;-68
2022/03/07 00:30:07;;;;;;;20.00;10.17;;;2.00;70.50;;;;;;5044436;28;20210;-69
2022/03/07 00:32:34;;;;;;;18.37;10.67;;;2.00;70.60;;;;;;5048660;28;20660;-69
2022/03/07 00:35:01;;;;;;;20.47;10.97;;;1.90;70.70;;;;;;5043507;28;20190;-69
2022/03/07 00:37:28;;;;;;;16.10;10.27;;;1.90;70.70;;;;;;5051517;28;20697;-67
2022/03/07 00:39:56;;;;;;;18.57;10.77;;;1.90;70.80;;;;;;5055030;28;20210;-68
2022/03/07 00:42:23;;;;;;;13.90;9.90;;;1.90;71.10;;;;;;5047929;28;20256;-68
2022/03/07 00:44:50;;;;;;;15.43;9.80;;;1.80;71.10;;;;;;5055865;28;20583;-68
2022/03/07 00:47:17;;;;;;;15.80;10.23;;;1.80;71.10;;;;;;5048605;28;20271;-68
2022/03/07 00:49:44;;;;;;;15.87;9.33;;;1.80;71.20;;;;;;5051551;28;20225;-69
2022/03/07 00:52:12;;;;;;;13.13;9.10;;;1.80;71.30;;;;;;5045226;28;20210;-68
2022/03/07 00:54:39;;;;;;;15.57;9.13;;;1.80;71.30;;;;;;5040171;28;20276;-68
2022/03/07 00:57:07;;;;;;;14.27;9.53;;;1.90;71.60;;;;;;5045753;28;20684;-68
2022/03/07 00:59:34;;;;;;;16.57;9.70;;;1.80;71.50;;;;;;5044516;28;20297;-69
2022/03/07 01:02:01;;;;;;;16.20;9.57;;;1.80;71.40;;;;;;5055125;28;20233;-67
2022/03/07 01:04:28;;;;;;;15.47;9.27;;;1.80;71.30;;;;;;5054488;28;20210;-68
2022/03/07 01:06:54;;;;;;;17.20;9.90;;;1.80;71.40;;;;;;5045750;28;20213;-68
2022/03/07 01:09:21;;;;;;;13.27;8.90;;;1.70;71.40;;;;;;5042388;28;20207;-69
2022/03/07 01:11:48;;;;;;;14.63;9.47;;;1.80;71.60;;;;;;5044845;28;20297;-69
2022/03/07 01:14:17;;;;;;;13.20;9.87;;;1.80;71.60;;;;;;5051636;28;20220;-68
2022/03/07 01:16:43;;;;;;;16.13;10.20;;;1.80;71.40;;;;;;5049313;28;20206;-68
2022/03/07 01:19:10;;;;;;;12.53;9.27;;;1.80;71.30;;;;;;5052530;28;20663;-68
2022/03/07 01:21:39;;;;;;;14.20;8.93;;;1.80;71.20;;;;;;5064775;28;20298;-67
2022/03/07 01:24:06;;;;;;;14.17;9.27;;;1.80;71.30;;;;;;5046533;28;20666;-68
2022/03/07 01:26:33;;;;;;;15.13;9.43;;;1.80;71.40;;;;;;5048972;28;20222;-69
2022/03/07 01:29:00;;;;;;;13.57;8.97;;;1.70;71.40;;;;;;5053385;28;20355;-68
2022/03/07 01:31:28;;;;;;;15.73;9.53;;;1.70;71.70;;;;;;5061024;28;20210;-68
2022/03/07 01:33:55;;;;;;;13.97;8.70;;;1.70;71.70;;;;;;5060400;28;20301;-68
2022/03/07 01:36:22;;;;;;;13.87;8.67;;;1.70;71.70;;;;;;5058294;28;20232;-67
2022/03/07 01:38:49;;;;;;;11.27;8.00;;;1.70;72.60;;;;;;5045240;28;20593;-69
2022/03/07 01:41:16;;;;;;;13.57;8.17;;;1.70;71.90;;;;;;5046100;28;20638;-68
2022/03/07 01:43:43;;;;;;;14.03;7.93;;;0.80;71.00;;;;;;5051769;28;20271;-69
2022/03/07 01:46:10;;;;;;;13.17;8.33;;;1.80;72.00;;;;;;5036127;28;20774;-69
2022/03/07 01:48:39;;;;;;;15.90;9.07;;;1.80;72.10;;;;;;5050311;28;20211;-68
2022/03/07 01:51:07;;;;;;;11.77;7.90;;;1.80;72.00;;;;;;5042566;28;20206;-68
2022/03/07 01:53:34;;;;;;;12.80;7.77;;;1.80;72.00;;;;;;5052670;28;20210;-68
2022/03/07 01:56:01;;;;;;;11.37;7.03;;;1.80;72.00;;;;;;5049186;28;20547;-69
2022/03/07 01:58:28;;;;;;;11.77;7.10;;;1.80;71.90;;;;;;5041815;28;20212;-69
2022/03/07 02:00:55;;;;;;;11.37;7.53;;;1.80;72.00;;;;;;5048216;28;20206;-68
2022/03/07 02:03:22;;;;;;;11.33;8.10;;;1.80;72.00;;;;;;5047115;28;20293;-68
2022/03/07 02:05:50;;;;;;;13.00;7.33;;;2.40;72.50;;;;;;5041645;28;20258;-68
2022/03/07 02:08:17;;;;;;;13.87;8.03;;;1.90;72.00;;;;;;5061991;28;20207;-68
2022/03/07 02:10:44;;;;;;;12.70;7.27;;;1.80;71.90;;;;;;5035006;28;20630;-69
2022/03/07 02:13:12;;;;;;;10.03;7.23;;;1.80;71.90;;;;;;5063684;28;20206;-68
2022/03/07 02:15:39;;;;;;;11.00;7.17;;;1.80;71.90;;;;;;5053412;28;20262;-68
2022/03/07 02:18:05;;;;;;;9.13;7.13;;;1.80;72.10;;;;;;5056140;28;20217;-68
2022/03/07 02:20:32;;;;;;;11.30;6.77;;;1.70;72.10;;;;;;5055093;28;20253;-68
2022/03/07 02:23:01;;;;;;;9.87;6.97;;;1.70;72.30;;;;;;5053918;28;20208;-69
2022/03/07 02:25:28;;;;;;;12.73;7.67;;;1.70;72.60;;;;;;5050345;28;20225;-69
2022/03/07 02:27:54;;;;;;;11.90;7.77;;;1.70;73.50;;;;;;5045719;28;20573;-69
2022/03/07 02:30:21;;;;;;;12.73;7.53;;;1.70;72.70;;;;;;5065311;28;20234;-68
2022/03/07 02:32:48;;;;;;;10.20;7.10;;;1.60;72.80;;;;;;5058727;28;20289;-68
2022/03/07 02:35:16;;;;;;;10.03;7.13;;;1.70;73.20;;;;;;5051174;28;20296;-68
2022/03/07 02:37:43;;;;;;;15.50;7.87;;;1.60;73.30;;;;;;5055718;28;20209;-68
2022/03/07 02:40:13;;;;;;;11.73;7.57;;;1.60;73.40;;;;;;5055327;28;20301;-68
2022/03/07 02:42:40;;;;;;;10.63;7.23;;;1.60;73.50;;;;;;5056911;28;20206;-68
2022/03/07 02:45:07;;;;;;;11.47;7.40;;;1.60;73.50;;;;;;5054371;28;20218;-69
2022/03/07 02:47:34;;;;;;;10.97;6.73;;;1.60;73.80;;;;;;5055419;28;20631;-68
2022/03/07 02:50:01;;;;;;;9.60;5.87;;;1.60;74.00;;;;;;5054954;28;20269;-68
2022/03/07 02:52:28;;;;;;;10.33;6.60;;;1.60;74.30;;;;;;5048212;28;20572;-68
2022/03/07 02:54:55;;;;;;;13.80;6.93;;;1.60;74.40;;;;;;5053524;28;20206;-69
2022/03/07 02:57:23;;;;;;;11.80;6.90;;;1.50;74.50;;;;;;5047874;28;20256;-69
2022/03/07 02:59:50;;;;;;;9.30;6.50;;;1.50;74.80;;;;;;5055535;28;20206;-70
2022/03/07 03:02:17;;;;;;;9.13;5.90;;;1.50;75.00;;;;;;5047879;28;20217;-68
2022/03/07 03:04:44;;;;;;;9.37;6.20;;;1.50;75.10;;;;;;5051286;28;20206;-69
2022/03/07 03:07:10;;;;;;;8.57;6.30;;;1.50;75.40;;;;;;5044977;28;20229;-69
2022/03/07 03:09:37;;;;;;;10.00;6.47;;;1.50;75.60;;;;;;5054775;28;20216;-69
2022/03/07 03:12:05;;;;;;;8.77;6.20;;;1.50;75.80;;;;;;5052402;28;20202;-69
2022/03/07 03:14:33;;;;;;;11.10;5.73;;;1.60;76.10;;;;;;5049149;28;20348;-68
2022/03/07 03:17:02;;;;;;;8.90;5.53;;;1.60;76.30;;;;;;5046036;28;20289;-69
2022/03/07 03:19:28;;;;;;;9.83;6.30;;;1.60;76.40;;;;;;5054328;28;20210;-68
2022/03/07 03:21:55;;;;;;;8.43;6.03;;;1.60;76.60;;;;;;5047882;28;20402;-68
2022/03/07 03:24:22;;;;;;;8.87;5.47;;;1.60;76.70;;;;;;5054060;28;20210;-69
2022/03/07 03:26:49;;;;;;;8.67;5.67;;;1.60;76.90;;;;;;5044161;28;20308;-69
2022/03/07 03:29:17;;;;;;;12.97;6.60;;;1.60;77.10;;;;;;5052246;28;20235;-69
2022/03/07 03:31:45;;;;;;;9.87;6.70;;;1.60;77.30;;;;;;5045943;28;20214;-69
2022/03/07 03:34:12;;;;;;;8.67;6.07;;;1.60;77.60;;;;;;5063495;28;20295;-69
2022/03/07 03:36:39;;;;;;;8.53;5.73;;;1.60;77.60;;;;;;5051669;28;20302;-68
2022/03/07 03:39:06;;;;;;;9.10;5.97;;;1.30;77.30;;;;;;5068499;28;20295;-68
2022/03/07 03:41:32;;;;;;;12.07;6.23;;;1.60;77.90;;;;;;5048600;28;20667;-68
2022/03/07 03:43:59;;;;;;;8.00;5.90;;;1.50;78.00;;;;;;5053093;28;20237;-67
2022/03/07 03:46:26;;;;;;;10.30;5.67;;;1.50;78.50;;;;;;5053593;28;20710;-68
2022/03/07 03:48:54;;;;;;;7.53;5.27;;;1.50;78.90;;;;;;5050154;28;20501;-68
2022/03/07 03:51:21;;;;;;;8.00;5.60;;;1.50;79.20;;;;;;5054959;28;20578;-68
2022/03/07 03:53:48;;;;;;;8.83;6.00;;;1.50;79.50;;;;;;5053514;28;20273;-69
2022/03/07 03:56:15;;;;;;;8.17;5.70;;;1.50;79.80;;;;;;5048993;28;20213;-69
2022/03/07 03:58:42;;;;;;;9.00;6.00;;;1.50;80.00;;;;;;5054106;28;20209;-69
2022/03/07 04:01:09;;;;;;;8.80;6.33;;;1.40;80.10;;;;;;5048563;28;20319;-68
2022/03/07 04:03:36;;;;;;;8.47;5.90;;;1.40;80.60;;;;;;5047080;28;20268;-68
2022/03/07 04:06:04;;;;;;;7.57;5.30;;;1.40;80.90;;;;;;5047441;28;20227;-68
2022/03/07 04:08:31;;;;;;;7.37;5.40;;;1.40;81.10;;;;;;5064415;28;20206;-69
2022/03/07 04:10:58;;;;;;;9.47;6.27;;;1.40;81.40;;;;;;5053314;28;20301;-69
2022/03/07 04:13:25;;;;;;;7.93;5.53;;;1.30;81.70;;;;;;5041614;28;20202;-69
2022/03/07 04:15:52;;;;;;;7.93;5.73;;;1.30;82.30;;;;;;5048863;28;20280;-68
2022/03/07 04:18:19;;;;;;;9.83;5.63;;;1.30;82.60;;;;;;5054765;28;20292;-68
2022/03/07 04:20:45;;;;;;;8.83;6.27;;;1.30;83.20;;;;;;5054230;28;20470;-68
2022/03/07 04:23:15;;;;;;;7.80;5.83;;;1.30;83.50;;;;;;5055373;28;20210;-70
2022/03/07 04:25:42;;;;;;;7.17;6.03;;;1.30;84.00;;;;;;5041964;28;20296;-69
2022/03/07 04:28:09;;;;;;;7.30;5.03;;;1.30;84.30;;;;;;5042085;28;20264;-68
2022/03/07 04:30:36;;;;;;;8.03;6.20;;;1.20;84.60;;;;;;5055507;28;20210;-67
2022/03/07 04:33:02;;;;;;;8.43;5.63;;;1.20;84.80;;;;;;5061975;28;20202;-68
2022/03/07 04:35:29;;;;;;;9.30;5.97;;;1.30;85.20;;;;;;5041323;28;20571;-68
2022/03/07 04:37:56;;;;;;;9.23;5.90;;;1.30;85.50;;;;;;5045693;28;20659;-69
2022/03/07 04:40:24;;;;;;;10.10;6.40;;;1.20;85.80;;;;;;5042072;28;20211;-68
2022/03/07 04:42:52;;;;;;;10.30;6.40;;;1.20;86.20;;;;;;5050744;28;20681;-69
2022/03/07 04:45:19;;;;;;;10.30;7.03;;;1.20;86.50;;;;;;5063728;28;20220;-68
2022/03/07 04:47:46;;;;;;;11.90;6.50;;;1.20;87.00;;;;;;5014127;28;20222;-68
2022/03/07 04:50:13;;;;;;;9.40;6.43;;;1.10;86.90;;;;;;5023439;28;20719;-68
2022/03/07 04:52:41;;;;;;;12.07;6.77;;;1.20;87.30;;;;;;5010432;28;20199;-68
2022/03/07 04:55:09;;;;;;;9.37;6.07;;;1.10;88.10;;;;;;5012273;28;20302;-69
2022/03/07 04:57:38;;;;;;;11.63;6.87;;;1.10;88.50;;;;;;4999007;28;20314;-68
2022/03/07 05:00:07;;;;;;;8.07;6.07;;;1.10;89.10;;;;;;5007979;28;20207;-67
2022/03/07 05:02:34;;;;;;;10.00;6.80;;;1.00;89.50;;;;;;5007562;28;20215;-68
2022/03/07 05:05:01;;;;;;;11.43;6.57;;;0.90;90.00;;;;;;5004309;28;20220;-68
2022/03/07 05:07:28;;;;;;;8.30;6.93;;;0.90;90.40;;;;;;5017347;28;20347;-69
2022/03/07 05:09:55;;;;;;;12.33;7.00;;;0.80;90.60;;;;;;5007884;28;20203;-69
2022/03/07 05:12:21;;;;;;;8.50;6.43;;;0.80;91.00;;;;;;5005169;28;20204;-68
2022/03/07 05:14:50;;;;;;;9.00;6.87;;;0.80;91.30;;;;;;5001625;28;20544;-68
2022/03/07 05:17:16;;;;;;;11.30;6.73;;;0.80;91.80;;;;;;5012605;28;20298;-68
2022/03/07 05:19:45;;;;;;;12.27;6.63;;;0.80;92.20;;;;;;5008328;28;20217;-68
2022/03/07 05:22:12;;;;;;;10.10;6.97;;;0.80;92.60;;;;;;5020414;28;20262;-68
2022/03/07 05:24:39;;;;;;;11.83;7.40;;;0.80;93.00;;;;;;5001400;28;20391;-68
2022/03/07 05:27:06;;;;;;;11.20;7.27;;;0.80;93.50;;;;;;5007444;28;20731;-67
2022/03/07 05:29:33;;;;;;;11.60;7.33;;;0.80;94.00;;;;;;5015296;28;20215;-68
2022/03/07 05:32:02;;;;;;;8.70;6.80;;;0.80;94.50;;;;;;5019158;28;20215;-68
2022/03/07 05:34:29;;;;;;;9.93;7.10;;;0.70;95.10;;;;;;5001277;28;20594;-68
2022/03/07 05:36:56;;;;;;;11.53;7.50;;;0.80;95.60;;;;;;5002190;28;20207;-68
2022/03/07 05:39:22;;;;;;;15.27;7.30;;;0.80;96.30;;;;;;5011469;28;20278;-68
2022/03/07 05:41:49;;;;;;;10.93;7.20;;;0.80;96.90;;;;;;5011279;28;20211;-68
2022/03/07 05:44:16;;;;;;;12.33;7.87;;;0.80;97.30;;;;;;5007632;28;20226;-69
2022/03/07 05:46:43;;;;;;;11.13;7.40;;;0.80;97.90;;;;;;5029450;28;20321;-69
2022/03/07 05:49:11;;;;;;;10.77;7.33;;;0.90;98.40;;;;;;5048420;28;20202;-69
2022/03/07 05:51:38;;;;;;;11.40;7.80;;;1.00;99.10;;;;;;5054709;28;20594;-69
2022/03/07 05:54:05;;;;;;;13.50;8.10;;;1.10;99.50;;;;;;5055525;28;20395;-68
2022/03/07 05:56:32;;;;;;;12.70;7.60;;;1.30;99.80;;;;;;5055831;28;20281;-69
2022/03/07 05:58:58;;;;;;;15.20;8.10;;;1.40;99.60;;;;;;5052449;28;20206;-68
2022/03/07 06:01:25;;;;;;;12.70;7.90;;;1.50;99.50;;;;;;5049114;28;20246;-69
2022/03/07 06:03:52;;;;;;;12.93;8.17;;;1.40;99.70;;;;;;5057296;28;20321;-69
2022/03/07 06:06:21;;;;;;;11.63;8.17;;;1.40;99.90;;;;;;5052012;28;20311;-72
2022/03/07 06:08:47;;;;;;;15.07;9.13;;;1.30;99.90;;;;;;5052291;28;20574;-70
2022/03/07 06:11:14;;;;;;;13.60;8.27;;;1.40;99.90;;;;;;5055863;28;20206;-71
2022/03/07 06:13:41;;;;;;;13.90;8.57;;;1.40;99.90;;;;;;5070243;28;20201;-69
2022/03/07 06:16:08;;;;;;;12.33;8.87;;;1.50;99.90;;;;;;5053948;28;20352;-70
2022/03/07 06:18:35;;;;;;;13.47;8.53;;;1.50;99.90;;;;;;5058088;28;20687;-70
2022/03/07 06:21:03;;;;;;;14.10;8.73;;;1.50;99.90;;;;;;5059544;28;20795;-70
2022/03/07 06:23:31;;;;;;;11.33;8.10;;;1.70;99.90;;;;;;5049970;28;20634;-69
2022/03/07 06:25:58;;;;;;;12.53;7.67;;;1.60;99.90;;;;;;5065411;28;20214;-69
2022/03/07 06:28:25;;;;;;;11.47;8.20;;;1.70;99.90;;;;;;5061381;28;20221;-70
2022/03/07 06:30:52;;;;;;;15.33;7.63;;;1.70;99.90;;;;;;5068077;28;20292;-69
2022/03/07 06:33:18;;;;;;;11.90;7.67;;;1.80;99.90;;;;;;5051085;28;20205;-70
2022/03/07 06:35:45;;;;;;;14.07;9.00;;;1.80;99.90;;;;;;5051293;28;20301;-70
2022/03/07 06:38:12;;;;;;;12.97;8.77;;;1.80;99.90;;;;;;5061129;28;20228;-70
2022/03/07 06:40:40;;;;;;;11.47;8.07;;;1.80;99.90;;;;;;5056619;28;20212;-70
2022/03/07 06:43:07;;;;;;;10.83;7.63;;;1.90;99.90;;;;;;5045173;28;20250;-70
2022/03/07 06:45:34;;;;;;;14.43;8.10;;;2.30;99.90;;;;;;5040654;28;20222;-72
2022/03/07 06:48:01;;;;;;;13.47;8.13;;;2.70;99.90;;;;;;5049533;28;20310;-70
2022/03/07 06:50:28;;;;;;;15.37;7.67;;;2.90;99.90;;;;;;5048716;28;20248;-70
2022/03/07 06:52:55;;;;;;;14.27;7.83;;;3.10;99.90;;;;;;5055379;28;20559;-70
2022/03/07 06:55:22;;;;;;;13.70;7.30;;;3.20;99.90;;;;;;5062283;28;20721;-68
2022/03/07 06:57:50;;;;;;;12.87;8.87;;;3.30;99.90;;;;;;5051727;28;20596;-69
2022/03/07 07:00:18;;;;;;;13.67;7.13;;;2.60;99.90;;;;;;5066504;28;20551;-66
2022/03/07 07:02:46;;;;;;;12.90;7.73;;;3.30;99.90;;;;;;5054308;28;20533;-69
2022/03/07 07:05:14;;;;;;;13.13;8.07;;;3.30;99.70;;;;;;5080513;28;20198;-72
2022/03/07 07:07:42;;;;;;;20.43;8.80;;;3.30;99.60;;;;;;5066787;28;20222;-69
2022/03/07 07:10:10;;;;;;;13.03;7.27;;;3.30;99.50;;;;;;5052751;28;20210;-70
2022/03/07 07:12:37;;;;;;;12.80;6.70;;;3.30;99.60;;;;;;5052950;28;20202;-69
2022/03/07 07:15:07;;;;;;;13.83;6.97;;;3.40;99.50;;;;;;5048444;28;20211;-70
2022/03/07 07:17:34;;;;;;;11.50;7.27;;;3.50;99.20;;;;;;5060207;28;20608;-71
2022/03/07 07:20:01;;;;;;;12.53;6.87;;;3.50;99.10;;;;;;5066729;28;20209;-71
2022/03/07 07:22:27;;;;;;;13.87;7.30;;;3.60;98.80;;;;;;5053062;28;20332;-71
2022/03/07 07:24:54;;;;;;;14.90;6.97;;;3.60;98.60;;;;;;5055864;28;20302;-70
2022/03/07 07:27:21;;;;;;;12.83;6.13;;;3.70;98.80;;;;;;5050575;28;20293;-70
2022/03/07 07:29:48;;;;;;;10.17;6.20;;;3.90;98.80;;;;;;5064041;28;20215;-71
2022/03/07 07:32:16;;;;;;;14.07;6.30;;;4.40;99.30;;;;;;5055938;28;20301;-69
2022/03/07 07:34:43;;;;;;;10.03;6.40;;;4.90;98.20;;;;;;5054366;28;20202;-69
2022/03/07 07:37:10;;;;;;;10.97;6.40;;;5.20;96.90;;;;;;5056814;28;20229;-68
2022/03/07 07:39:37;;;;;;;13.80;5.80;;;5.30;96.20;;;;;;5054452;28;20205;-68
2022/03/07 07:42:04;;;;;;;10.13;6.00;;;5.40;95.70;;;;;;5053822;28;20570;-70
2022/03/07 07:44:31;;;;;;;8.40;5.23;;;5.50;95.30;;;;;;5054072;28;20217;-68
2022/03/07 07:46:58;;;;;;;9.20;5.83;;;5.60;94.80;;;;;;5054862;28;20336;-70
2022/03/07 07:49:27;;;;;;;12.53;5.83;;;5.50;94.40;;;;;;5053161;28;20203;-70
2022/03/07 07:51:54;;;;;;;8.73;5.33;;;5.70;95.40;;;;;;5050170;28;20239;-70
2022/03/07 07:54:21;;;;;;;9.77;5.20;;;6.10;94.40;;;;;;5053641;28;20272;-71
2022/03/07 07:56:48;;;;;;;7.53;4.57;;;6.30;93.10;;;;;;5061198;28;20573;-70
2022/03/07 07:59:15;;;;;;;9.27;4.30;;;6.20;92.30;;;;;;5065882;28;20309;-71
2022/03/07 08:01:42;;;;;;;7.47;4.83;;;6.20;92.10;;;;;;5053539;28;20206;-70
2022/03/07 08:04:09;;;;;;;9.67;4.87;;;6.20;92.00;;;;;;5061263;28;20716;-71
2022/03/07 08:06:37;;;;;;;7.53;4.37;;;6.10;91.70;;;;;;5061555;28;20643;-70
2022/03/07 08:09:04;;;;;;;11.57;5.00;;;6.20;91.60;;;;;;5048547;28;20238;-70
2022/03/07 08:11:31;;;;;;;9.03;4.80;;;6.30;91.30;;;;;;5048068;28;20237;-70
2022/03/07 08:13:58;;;;;;;8.43;5.50;;;6.20;90.80;;;;;;5064764;28;20233;-70
2022/03/07 08:16:25;;;;;;;7.43;5.00;;;6.30;90.90;;;;;;5059661;28;20202;-69
2022/03/07 08:18:52;;;;;;;7.83;5.23;;;6.40;90.20;;;;;;5050485;28;20213;-70
2022/03/07 08:21:21;;;;;;;10.27;4.80;;;6.30;89.80;;;;;;5060548;28;20607;-70
2022/03/07 08:23:49;;;;;;;11.53;5.30;;;6.20;89.80;;;;;;5047518;28;20197;-72
2022/03/07 08:26:16;;;;;;;10.07;5.20;;;6.20;90.30;;;;;;5048959;28;20238;-70
2022/03/07 08:28:43;;;;;;;9.77;5.60;;;6.30;90.40;;;;;;5060689;28;20312;-71
2022/03/07 08:31:10;;;;;;;13.57;5.37;;;6.40;90.00;;;;;;5056239;28;20210;-71
2022/03/07 08:33:37;;;;;;;8.80;4.63;;;6.50;89.50;;;;;;5047584;28;20241;-71
2022/03/07 08:36:04;;;;;;;8.73;4.83;;;6.50;88.50;;;;;;5054430;28;20622;-70
2022/03/07 08:38:31;;;;;;;7.23;4.60;;;6.40;87.30;;;;;;5053226;28;20244;-70
2022/03/07 08:41:00;;;;;;;5.87;5.07;;;6.30;87.10;;;;;;5053636;28;20256;-70
2022/03/07 08:43:27;;;;;;;8.73;5.53;;;6.20;87.30;;;;;;5054844;28;20229;-71
2022/03/07 08:45:53;;;;;;;9.87;4.67;;;6.20;87.40;;;;;;5049533;28;20240;-71
2022/03/07 08:48:20;;;;;;;7.67;5.60;;;6.20;87.90;;;;;;5055718;28;20628;-71
2022/03/07 08:50:48;;;;;;;8.30;4.30;;;6.30;87.80;;;;;;5054008;28;20221;-72
2022/03/07 08:53:16;;;;;;;6.87;5.00;;;6.30;87.80;;;;;;5047303;28;20207;-71
2022/03/07 08:55:43;;;;;;;6.20;4.40;;;6.40;87.40;;;;;;5046983;28;20206;-72
2022/03/07 08:58:11;;;;;;;5.50;3.80;;;6.50;87.80;;;;;;5036000;28;20346;-71
2022/03/07 09:00:39;;;;;;;6.60;4.67;;;6.50;86.90;;;;;;5044030;28;20289;-71
2022/03/07 09:03:05;;;;;;;6.30;3.80;;;6.60;87.10;;;;;;5052656;28;20237;-71
2022/03/07 09:05:32;;;;;;;7.67;4.83;;;6.70;86.70;;;;;;5049564;28;20283;-71
2022/03/07 09:07:59;;;;;;;10.73;3.90;;;6.80;86.20;;;;;;5039552;28;20695;-71
2022/03/07 09:10:26;;;;;;;6.80;4.47;;;6.80;84.90;;;;;;5054100;28;20324;-69
2022/03/07 09:12:54;;;;;;;6.37;4.53;;;6.70;84.80;;;;;;5047594;28;20232;-71
2022/03/07 09:15:22;;;;;;;7.70;4.80;;;6.60;85.40;;;;;;5052227;28;20220;-71
2022/03/07 09:17:49;;;;;;;6.77;4.40;;;6.60;85.50;;;;;;5050790;28;20265;-71
2022/03/07 09:20:17;;;;;;;5.60;3.57;;;6.70;85.60;;;;;;5052197;28;20234;-70
2022/03/07 09:22:44;;;;;;;4.93;3.33;;;6.80;85.30;;;;;;5053645;28;20252;-71
2022/03/07 09:25:13;;;;;;;4.70;3.57;;;6.70;84.40;;;;;;5061022;28;20206;-71
2022/03/07 09:27:42;;;;;;;6.37;3.87;;;6.60;84.80;;;;;;5048098;28;20233;-71
2022/03/07 09:30:10;;;;;;;5.60;3.50;;;6.40;85.00;;;;;;5062812;28;20241;-71
2022/03/07 09:32:38;;;;;;;6.53;3.50;;;6.40;85.20;;;;;;5049161;28;20209;-71
2022/03/07 09:35:06;;;;;;;6.77;3.73;;;6.30;85.20;;;;;;5055096;28;20638;-71
2022/03/07 09:37:34;;;;;;;5.77;3.67;;;6.20;85.70;;;;;;5062387;28;20289;-71
2022/03/07 09:40:00;;;;;;;10.17;4.03;;;6.10;86.50;;;;;;5067342;28;20201;-71
2022/03/07 09:42:28;;;;;;;6.73;3.87;;;6.10;86.90;;;;;;5065364;28;20202;-71
2022/03/07 09:44:54;;;;;;;5.97;3.70;;;6.00;86.90;;;;;;5065170;28;20229;-73
2022/03/07 09:47:22;;;;;;;7.13;3.57;;;6.10;87.10;;;;;;5062267;28;20324;-72
2022/03/07 09:49:51;;;;;;;10.63;3.77;;;6.00;86.70;;;;;;5064313;28;20204;-72
2022/03/07 09:52:18;;;;;;;7.20;3.80;;;5.90;86.80;;;;;;5066284;28;20205;-73
2022/03/07 09:54:45;;;;;;;7.20;4.00;;;5.90;87.40;;;;;;5067903;28;20578;-73
2022/03/07 09:57:12;;;;;;;10.43;4.23;;;5.80;87.80;;;;;;5055909;28;20376;-72
2022/03/07 09:59:39;;;;;;;5.90;3.77;;;5.80;88.40;;;;;;5059252;28;20212;-71
2022/03/07 10:02:09;;;;;;;5.57;3.90;;;5.80;88.60;;;;;;5062598;28;20263;-72
2022/03/07 10:04:41;;;;;;;5.53;4.30;;;5.70;89.10;;;;;;5063554;28;20264;-72
2022/03/07 10:07:09;;;;;;;6.57;4.73;;;5.80;89.70;;;;;;5065069;28;20216;-71
2022/03/07 10:09:36;;;;;;;7.80;3.80;;;5.90;90.30;;;;;;5053517;28;20619;-71
2022/03/07 10:12:04;;;;;;;7.77;3.80;;;6.20;90.40;;;;;;5064850;28;20236;-71
2022/03/07 10:14:34;;;;;;;8.00;3.53;;;6.70;90.20;;;;;;5051176;28;20312;-72
2022/03/07 10:17:01;;;;;;;4.33;3.43;;;7.50;94.70;;;;;;5054484;28;20214;-73
2022/03/07 10:19:29;;;;;;;5.37;3.83;;;8.60;88.60;;;;;;5058715;28;20217;-71
2022/03/07 10:21:56;;;;;;;5.27;3.50;;;9.30;82.80;;;;;;5061647;28;20228;-74
2022/03/07 10:24:34;;;;;;;6.43;3.73;;;10.70;94.30;;;;;;5055204;28;20209;-73
2022/03/07 10:27:01;;;;;;;6.40;3.27;;;14.40;74.30;;;;;;5055482;28;20209;-72
2022/03/07 10:29:28;;;;;;;10.43;3.90;;;16.40;57.50;;;;;;5058834;28;20250;-72
2022/03/07 10:31:55;;;;;;;4.43;3.23;;;17.60;52.80;;;;;;5056791;28;20651;-73
2022/03/07 10:34:22;;;;;;;6.90;4.07;;;17.60;49.40;;;;;;5058856;28;20241;-72
2022/03/07 10:36:49;;;;;;;6.13;3.83;;;16.90;48.50;;;;;;5066793;28;20212;-74
2022/03/07 10:39:23;;;;;;;6.37;3.60;;;16.10;48.50;;;;;;5060796;28;20308;-73
2022/03/07 10:41:52;;;;;;;7.77;4.10;;;15.70;49.80;;;;;;5059990;28;20686;-73
2022/03/07 10:44:29;;;;;;;7.70;4.60;;;16.20;51.80;;;;;;5063813;28;20296;-71
2022/03/07 10:47:07;;;;;;;7.60;4.80;;;19.00;53.30;;;;;;5057756;28;20225;-71
2022/03/07 10:49:34;;;;;;;6.82;4.70;;;22.00;44.30;;;;;;5057799;28;20579;-72
2022/03/07 10:52:03;;;;;;;6.30;4.80;;;23.90;40.80;;;;;;5061085;28;20236;-72
2022/03/07 10:54:35;;;;;;;6.60;4.57;;;25.80;37.60;;;;;;5066405;28;20205;-73
2022/03/07 10:57:04;;;;;;;9.40;5.50;;;26.90;33.30;;;;;;5053722;28;20198;-71
2022/03/07 10:59:33;;;;;;;8.45;5.95;;;27.00;32.80;;;;;;5059471;28;20197;-72
2022/03/07 11:02:01;;;;;;;7.13;5.70;;;27.10;32.30;;;;;;5065675;28;20197;-72
2022/03/07 11:04:29;;;;;;;7.78;5.88;;;26.60;31.80;;;;;;5066751;28;20232;-72
2022/03/07 11:06:56;;;;;;;6.95;5.85;;;26.10;32.20;;;;;;5068451;28;20202;-71
2022/03/07 11:09:23;;;;;;;8.45;5.85;;;26.50;32.60;;;;;;5066751;28;20276;-72
2022/03/07 11:11:51;;;;;;;6.97;5.50;;;27.70;32.00;;;;;;5071540;28;20235;-73
2022/03/07 11:14:20;;;;;;;7.30;5.85;;;30.30;30.00;;;;;;5072806;28;20208;-70
2022/03/07 11:16:50;;;;;;;8.68;6.20;;;32.80;27.90;;;;;;5062774;28;20558;-70
2022/03/07 11:19:19;;;;;;;9.98;6.03;;;34.30;26.00;;;;;;5072662;28;20216;-70
2022/03/07 11:21:50;;;;;;;8.70;5.88;;;35.40;24.80;;;;;;5057710;28;20253;-71
2022/03/07 11:24:19;;;;;;;7.65;6.22;;;36.10;24.50;;;;;;5053336;28;20707;-70
2022/03/07 11:26:47;;;;;;;9.40;6.25;;;37.50;23.70;;;;;;5052425;28;20205;-70
2022/03/07 11:29:14;;;;;;;8.77;6.30;;;38.80;22.70;;;;;;5046700;28;20276;-70
2022/03/07 11:31:43;;;;;;;8.65;7.57;;;39.70;22.00;;;;;;5039454;28;20207;-71
2022/03/07 11:34:12;;;;;;;8.50;5.80;;;40.70;21.60;;;;;;5048228;28;20245;-72
2022/03/07 11:36:41;;;;;;;7.72;6.43;;;41.50;20.80;;;;;;5044028;28;20252;-71
2022/03/07 11:39:09;;;;;;;7.25;6.05;;;40.80;20.30;;;;;;5049703;28;20206;-69
2022/03/07 11:41:38;;;;;;;6.88;5.80;;;39.40;21.10;;;;;;5064174;28;20209;-70
2022/03/07 11:44:09;;;;;;;7.10;5.05;;;39.60;21.30;;;;;;5054293;28;20203;-69
2022/03/07 11:46:37;;;;;;;7.43;5.00;;;39.60;20.40;;;;;;5052060;28;20242;-70
2022/03/07 11:49:10;;;;;;;8.85;4.82;;;37.50;20.20;;;;;;5044822;28;20227;-70
2022/03/07 11:51:39;;;;;;;6.25;5.18;;;34.70;21.00;;;;;;5048777;28;20308;-71
2022/03/07 11:54:07;;;;;;;6.82;5.43;;;33.30;23.00;;;;;;5054599;28;20626;-70
2022/03/07 11:56:36;;;;;;;5.80;4.90;;;33.90;22.90;;;;;;5044482;28;20470;-70
2022/03/07 11:59:05;;;;;;;8.15;4.97;;;35.10;23.00;;;;;;5039051;28;20199;-69
2022/03/07 12:01:32;;;;;;;6.95;5.15;;;36.60;21.60;;;;;;5043409;28;20228;-71
2022/03/07 12:04:14;;;;;;;8.23;4.95;;;35.70;20.80;;;;;;5050316;28;20209;-71
2022/03/07 12:06:43;;;;;;;7.13;4.93;;;34.80;22.40;;;;;;5046383;28;20208;-69
2022/03/07 12:09:10;;;;;;;7.88;5.40;;;35.30;21.60;;;;;;5062929;28;20609;-71
2022/03/07 12:11:38;;;;;;;7.28;5.65;;;33.80;21.30;;;;;;5058498;28;20202;-73
2022/03/07 12:14:08;;;;;;;7.38;5.60;;;32.50;23.50;;;;;;5056258;28;20217;-71
2022/03/07 12:16:36;;;;;;;5.88;5.28;;;31.40;23.00;;;;;;5052886;28;20214;-70
2022/03/07 12:19:08;;;;;;;7.28;5.60;;;30.50;23.80;;;;;;5056026;28;20271;-71
2022/03/07 12:21:37;;;;;;;7.15;5.55;;;29.60;24.10;;;;;;5054277;28;20642;-72
2022/03/07 12:24:06;;;;;;;8.48;5.32;;;29.90;25.50;;;;;;5052519;28;20229;-70
2022/03/07 12:26:42;;;;;;;5.95;5.15;;;31.70;24.20;;;;;;5059522;28;20256;-72
2022/03/07 12:29:09;;;;;;;8.07;5.85;;;33.10;23.20;;;;;;5058234;28;20229;-71
2022/03/07 12:31:38;;;;;;;7.18;6.43;;;34.40;22.80;;;;;;5053563;28;20276;-72
2022/03/07 12:34:07;;;;;;;8.25;5.93;;;34.40;21.80;;;;;;5052761;28;20210;-72
2022/03/07 12:36:35;;;;;;;9.27;6.03;;;32.90;22.80;;;;;;5057852;28;20277;-72
2022/03/07 12:39:04;;;;;;;8.48;6.00;;;32.10;22.60;;;;;;5067055;28;20210;-71
2022/03/07 12:41:32;;;;;;;12.50;6.13;;;30.20;23.20;;;;;;5053524;28;20273;-71
2022/03/07 12:44:00;;;;;;;9.00;6.25;;;28.20;24.50;;;;;;5049902;28;20736;-71
2022/03/07 12:46:27;;;;;;;7.05;5.82;;;26.20;25.70;;;;;;5050436;28;20235;-70
2022/03/07 12:48:55;;;;;;;7.95;6.07;;;25.70;27.80;;;;;;5049214;28;20225;-71
2022/03/07 12:51:24;;;;;;;10.35;6.25;;;26.80;27.50;;;;;;5053818;28;20588;-72